createdAt,value
2023-07-30T00:00:55.590Z,100067.63
2023-07-30T00:03:23.801Z,100075.13
2023-07-30T00:05:55.429Z,100079.97
2023-07-30T00:08:23.454Z,100085.69
2023-07-30T00:10:52.649Z,100092.94
2023-07-30T00:13:20.400Z,100093.03
2023-07-30T00:15:49.183Z,100086.31
2023-07-30T00:18:17.261Z,100098.44
2023-07-30T00:20:45.493Z,100103.56
2023-07-30T00:23:13.544Z,100099.81
2023-07-30T00:25:41.300Z,100100.13
2023-07-30T00:28:10.410Z,100108.47
2023-07-30T00:30:38.540Z,100101.22
2023-07-30T00:33:06.304Z,100098.00
2023-07-30T00:35:34.079Z,100094.81
2023-07-30T00:38:02.152Z,100085.66
2023-07-30T00:40:29.997Z,100089.44
2023-07-30T00:42:57.795Z,100095.91
2023-07-30T00:45:27.250Z,100096.94
2023-07-30T00:47:55.176Z,100098.56
2023-07-30T00:50:22.977Z,100099.13
2023-07-30T00:52:51.040Z,100099.13
2023-07-30T00:55:19.375Z,100105.59
2023-07-30T00:57:47.870Z,100107.47
2023-07-30T01:00:16.171Z,100101.31
2023-07-30T01:02:45.765Z,100109.88
2023-07-30T01:05:13.587Z,100120.63
2023-07-30T01:07:41.661Z,100118.47
2023-07-30T01:10:10.062Z,100115.00
2023-07-30T01:12:39.215Z,100128.72
2023-07-30T01:15:09.409Z,100128.19
2023-07-30T01:17:38.032Z,100123.63
2023-07-30T01:20:08.539Z,100130.88
2023-07-30T01:22:37.904Z,100130.09
2023-07-30T01:25:06.459Z,100138.13
2023-07-30T01:27:40.835Z,100135.75
2023-07-30T01:30:15.472Z,100135.75
2023-07-30T01:32:44.078Z,100132.53
2023-07-30T01:35:13.652Z,100143.28
2023-07-30T01:37:43.592Z,100139.78
2023-07-30T01:40:12.778Z,100137.09
2023-07-30T01:42:40.787Z,100151.31
2023-07-30T01:45:09.270Z,100131.97
2023-07-30T01:47:37.072Z,100143.00
2023-07-30T01:50:05.637Z,100147.06
2023-07-30T01:52:33.369Z,100153.22
2023-07-30T01:55:02.784Z,100147.06
2023-07-30T01:57:30.834Z,100138.44
2023-07-30T01:59:58.597Z,100137.38
2023-07-30T02:02:26.452Z,100146.22
2023-07-30T02:04:54.588Z,100148.66
2023-07-30T02:07:22.358Z,100141.69
2023-07-30T02:09:50.118Z,100138.44
2023-07-30T02:12:19.687Z,100140.06
2023-07-30T02:14:47.828Z,100144.88
2023-07-30T02:17:15.599Z,100145.41
2023-07-30T02:19:44.556Z,100142.19
2023-07-30T02:22:12.287Z,100139.00
2023-07-30T02:24:40.054Z,100136.84
2023-07-30T02:27:08.182Z,100137.94
2023-07-30T02:29:37.303Z,100142.50
2023-07-30T02:32:05.911Z,100138.75
2023-07-30T02:34:33.648Z,100127.22
2023-07-30T02:37:01.458Z,100122.38
2023-07-30T02:39:29.424Z,100131.22
2023-07-30T02:41:57.214Z,100126.16
2023-07-30T02:44:25.013Z,100121.84
2023-07-30T02:46:54.276Z,100130.13
2023-07-30T02:49:22.013Z,100134.19
2023-07-30T02:51:51.161Z,100129.91
2023-07-30T02:54:22.093Z,100137.16
2023-07-30T02:56:49.877Z,100134.47
2023-07-30T02:59:17.625Z,100131.78
2023-07-30T03:01:46.109Z,100128.84
2023-07-30T03:04:15.253Z,100128.03
2023-07-30T03:06:42.988Z,100126.69
2023-07-30T03:09:11.024Z,100126.19
2023-07-30T03:11:39.000Z,100129.94
2023-07-30T03:14:07.045Z,100128.31
2023-07-30T03:16:35.113Z,100123.22
2023-07-30T03:19:02.891Z,100127.81
2023-07-30T03:21:32.044Z,100127.81
2023-07-30T03:24:00.024Z,100127.81
2023-07-30T03:26:27.780Z,100127.28
2023-07-30T03:28:55.509Z,100133.44
2023-07-30T03:31:23.457Z,100129.69
2023-07-30T03:33:51.450Z,100132.91
2023-07-30T03:36:19.183Z,100128.63
2023-07-30T03:38:48.519Z,100132.69
2023-07-30T03:41:16.256Z,100133.72
2023-07-30T03:43:44.002Z,100132.13
2023-07-30T03:46:12.076Z,100145.03
2023-07-30T03:48:40.425Z,100144.22
2023-07-30T03:51:09.364Z,100158.47
2023-07-30T03:53:37.483Z,100150.41
2023-07-30T03:56:06.765Z,100150.94
2023-07-30T03:58:34.497Z,100152.81
2023-07-30T04:01:02.571Z,100153.88
2023-07-30T04:03:30.513Z,100154.41
2023-07-30T04:05:58.323Z,100157.38
2023-07-30T04:08:26.153Z,100165.97
2023-07-30T04:10:53.895Z,100170.81
2023-07-30T04:13:23.194Z,100166.25
2023-07-30T04:15:50.997Z,100168.13
2023-07-30T04:18:18.733Z,100174.56
2023-07-30T04:20:46.488Z,100174.56
2023-07-30T04:23:14.510Z,100175.38
2023-07-30T04:25:42.415Z,100174.56
2023-07-30T04:28:10.192Z,100174.56
2023-07-30T04:30:39.578Z,100174.56
2023-07-30T04:33:07.418Z,100179.94
2023-07-30T04:35:35.193Z,100168.41
2023-07-30T04:38:03.161Z,100175.38
2023-07-30T04:40:31.558Z,100164.91
2023-07-30T04:42:59.284Z,100172.16
2023-07-30T04:45:27.334Z,100176.72
2023-07-30T04:47:56.520Z,100177.28
2023-07-30T04:50:24.474Z,100181.03
2023-07-30T04:52:52.587Z,100187.44
2023-07-30T04:55:20.418Z,100186.41
2023-07-30T04:57:48.422Z,100187.47
2023-07-30T05:00:16.383Z,100193.38
2023-07-30T05:02:44.185Z,100187.47
2023-07-30T05:05:13.806Z,100184.78
2023-07-30T05:07:41.613Z,100186.94
2023-07-30T05:10:11.955Z,100195.50
2023-07-30T05:12:40.059Z,100197.16
2023-07-30T05:15:08.933Z,100193.38
2023-07-30T05:17:36.871Z,100198.19
2023-07-30T05:20:05.271Z,100192.31
2023-07-30T05:22:34.622Z,100193.38
2023-07-30T05:25:02.355Z,100192.84
2023-07-30T05:27:32.426Z,100203.03
2023-07-30T05:30:00.438Z,100198.47
2023-07-30T05:32:28.365Z,100201.44
2023-07-30T05:34:56.133Z,100200.09
2023-07-30T05:37:24.552Z,100204.94
2023-07-30T05:39:53.674Z,100203.56
2023-07-30T05:42:21.424Z,100207.34
2023-07-30T05:44:49.514Z,100201.97
2023-07-30T05:47:17.273Z,100199.28
2023-07-30T05:49:45.065Z,100207.34
2023-07-30T05:52:13.150Z,100208.94
2023-07-30T05:54:40.955Z,100212.97
2023-07-30T05:57:10.112Z,100213.25
2023-07-30T05:59:38.109Z,100207.88
2023-07-30T06:02:06.421Z,100212.19
2023-07-30T06:04:34.199Z,100216.47
2023-07-30T06:07:02.620Z,100226.41
2023-07-30T06:09:30.816Z,100225.03
2023-07-30T06:11:59.632Z,100225.59
2023-07-30T06:14:29.211Z,100235.25
2023-07-30T06:16:57.209Z,100232.84
2023-07-30T06:19:25.054Z,100235.53
2023-07-30T06:21:53.542Z,100227.72
2023-07-30T06:24:21.318Z,100229.34
2023-07-30T06:26:49.359Z,100233.63
2023-07-30T06:29:17.360Z,100241.13
2023-07-30T06:31:46.812Z,100240.34
2023-07-30T06:34:14.428Z,100244.38
2023-07-30T06:36:42.823Z,100243.81
2023-07-30T06:39:10.599Z,100242.78
2023-07-30T06:41:38.959Z,100250.00
2023-07-30T06:44:06.950Z,100236.03
2023-07-30T06:46:35.163Z,100242.78
2023-07-30T06:49:04.368Z,100240.59
2023-07-30T06:51:32.327Z,100240.59
2023-07-30T06:54:00.403Z,100247.59
2023-07-30T06:56:28.160Z,100242.22
2023-07-30T06:58:57.538Z,100251.34
2023-07-30T07:01:25.398Z,100255.63
2023-07-30T07:03:53.814Z,100257.78
2023-07-30T07:06:22.984Z,100251.88
2023-07-30T07:08:50.747Z,100250.81
2023-07-30T07:11:19.019Z,100262.06
2023-07-30T07:13:46.833Z,100268.50
2023-07-30T07:16:15.005Z,100259.91
2023-07-30T07:18:43.354Z,100257.22
2023-07-30T07:21:11.416Z,100256.41
2023-07-30T07:23:40.525Z,100266.88
2023-07-30T07:26:08.748Z,100275.97
2023-07-30T07:28:37.029Z,100272.19
2023-07-30T07:31:04.907Z,100264.06
2023-07-30T07:33:33.346Z,100271.28
2023-07-30T07:36:07.656Z,100269.91
2023-07-30T07:38:36.704Z,100254.31
2023-07-30T07:41:05.912Z,100272.56
2023-07-30T07:43:33.656Z,100274.19
2023-07-30T07:46:01.997Z,100269.59
2023-07-30T07:48:29.726Z,100276.28
2023-07-30T07:50:57.502Z,100269.56
2023-07-30T07:53:25.852Z,100282.22
2023-07-30T07:55:53.601Z,100281.41
2023-07-30T07:58:22.705Z,100280.34
2023-07-30T08:00:50.784Z,100275.19
2023-07-30T08:03:18.527Z,100270.63
2023-07-30T08:05:47.208Z,100272.47
2023-07-30T08:08:14.967Z,100271.38
2023-07-30T08:10:44.757Z,100264.88
2023-07-30T08:13:12.935Z,100272.91
2023-07-30T08:15:43.070Z,100277.97
2023-07-30T08:18:11.093Z,100271.75
2023-07-30T08:20:38.920Z,100266.91
2023-07-30T08:23:07.301Z,100270.91
2023-07-30T08:25:35.109Z,100266.59
2023-07-30T08:28:02.930Z,100273.56
2023-07-30T08:30:31.333Z,100265.78
2023-07-30T08:33:00.567Z,100269.53
2023-07-30T08:35:29.098Z,100272.78
2023-07-30T08:37:57.594Z,100270.09
2023-07-30T08:40:26.002Z,100273.31
2023-07-30T08:42:54.699Z,100271.72
2023-07-30T08:45:23.671Z,100270.88
2023-07-30T08:47:51.504Z,100271.69
2023-07-30T08:50:20.859Z,100275.97
2023-07-30T08:52:50.887Z,100270.38
2023-07-30T08:55:20.269Z,100287.31
2023-07-30T08:57:48.380Z,100269.56
2023-07-30T09:00:19.736Z,100288.66
2023-07-30T09:02:57.002Z,100285.72
2023-07-30T09:05:26.865Z,100272.53
2023-07-30T09:07:55.313Z,100279.25
2023-07-30T09:10:23.257Z,100277.06
2023-07-30T09:12:56.321Z,100288.38
2023-07-30T09:15:33.390Z,100297.25
2023-07-30T09:18:02.476Z,100306.69
2023-07-30T09:20:39.580Z,100302.66
2023-07-30T09:23:08.035Z,100307.00
2023-07-30T09:25:36.365Z,100301.06
2023-07-30T09:28:04.390Z,100298.16
2023-07-30T09:30:34.972Z,100295.50
2023-07-30T09:33:02.850Z,100296.84
2023-07-30T09:35:35.789Z,100297.94
2023-07-30T09:38:05.533Z,100295.00
2023-07-30T09:40:34.672Z,100297.16
2023-07-30T09:43:04.886Z,100299.06
2023-07-30T09:45:36.150Z,100293.09
2023-07-30T09:48:06.934Z,100294.44
2023-07-30T09:50:37.646Z,100299.25
2023-07-30T09:53:06.388Z,100296.28
2023-07-30T09:55:34.829Z,100294.16
2023-07-30T09:58:02.652Z,100297.66
2023-07-30T10:00:31.828Z,100305.19
2023-07-30T10:03:01.706Z,100318.66
2023-07-30T10:05:35.080Z,100319.75
2023-07-30T10:08:09.391Z,100317.84
2023-07-30T10:10:37.533Z,100321.91
2023-07-30T10:13:08.878Z,100336.41
2023-07-30T10:15:38.352Z,100336.41
2023-07-30T10:18:06.709Z,100337.97
2023-07-30T10:20:34.573Z,100342.00
2023-07-30T10:23:06.698Z,100341.22
2023-07-30T10:25:45.781Z,100346.81
2023-07-30T10:28:29.699Z,100333.34
2023-07-30T10:30:58.576Z,100346.75
2023-07-30T10:33:45.634Z,100347.53
2023-07-30T10:36:13.566Z,100348.50
2023-07-30T10:38:43.754Z,100347.34
2023-07-30T10:41:14.556Z,100347.25
2023-07-30T10:43:43.671Z,100335.03
2023-07-30T10:46:13.029Z,100344.63
2023-07-30T10:48:42.433Z,100347.53
2023-07-30T10:51:12.284Z,100349.41
2023-07-30T10:53:40.585Z,100354.25
2023-07-30T10:56:11.634Z,100350.22
2023-07-30T10:58:39.542Z,100350.28
2023-07-30T11:01:08.464Z,100345.97
2023-07-30T11:03:37.655Z,100353.00
2023-07-30T11:06:05.667Z,100357.59
2023-07-30T11:08:39.001Z,100355.41
2023-07-30T11:11:08.268Z,100354.63
2023-07-30T11:13:44.385Z,100355.59
2023-07-30T11:16:12.676Z,100362.03
2023-07-30T11:18:42.154Z,100353.06
2023-07-30T11:21:10.320Z,100366.16
2023-07-30T11:23:39.817Z,100355.28
2023-07-30T11:26:10.351Z,100359.19
2023-07-30T11:28:41.093Z,100353.44
2023-07-30T11:31:10.867Z,100352.88
2023-07-30T11:33:40.629Z,100357.13
2023-07-30T11:36:10.961Z,100352.47
2023-07-30T11:38:40.960Z,100351.28
2023-07-30T11:41:12.353Z,100348.31
2023-07-30T11:43:43.767Z,100348.03
2023-07-30T11:46:14.396Z,100358.25
2023-07-30T11:48:44.785Z,100361.16
2023-07-30T11:51:24.823Z,100359.47
2023-07-30T11:53:54.325Z,100357.41
2023-07-30T11:56:25.181Z,100347.88
2023-07-30T11:58:57.226Z,100341.31
2023-07-30T12:01:26.840Z,100343.78
2023-07-30T12:03:57.075Z,100344.50
2023-07-30T12:06:25.392Z,100362.44
2023-07-30T12:08:53.565Z,100350.97
2023-07-30T12:11:21.996Z,100352.81
2023-07-30T12:13:51.490Z,100362.72
2023-07-30T12:16:22.330Z,100354.63
2023-07-30T12:18:50.316Z,100347.34
2023-07-30T12:21:18.062Z,100355.72
2023-07-30T12:23:46.052Z,100349.75
2023-07-30T12:26:13.835Z,100355.63
2023-07-30T12:28:41.553Z,100360.25
2023-07-30T12:31:09.536Z,100375.09
2023-07-30T12:33:38.895Z,100364.19
2023-07-30T12:36:06.934Z,100365.69
2023-07-30T12:38:35.725Z,100365.63
2023-07-30T12:41:03.532Z,100375.84
2023-07-30T12:43:31.326Z,100360.59
2023-07-30T12:45:59.370Z,100361.41
2023-07-30T12:48:27.127Z,100358.22
2023-07-30T12:50:58.131Z,100359.00
2023-07-30T12:53:26.869Z,100354.41
2023-07-30T12:55:54.629Z,100359.31
2023-07-30T12:58:22.385Z,100350.59
2023-07-30T13:00:50.724Z,100360.81
2023-07-30T13:03:18.619Z,100349.22
2023-07-30T13:05:46.449Z,100362.72
2023-07-30T13:08:16.301Z,100356.22
2023-07-30T13:10:44.327Z,100350.72
2023-07-30T13:13:12.137Z,100345.03
2023-07-30T13:15:40.306Z,100352.84
2023-07-30T13:18:08.069Z,100355.44
2023-07-30T13:20:35.810Z,100343.22
2023-07-30T13:23:04.136Z,100351.53
2023-07-30T13:25:33.599Z,100352.66
2023-07-30T13:28:01.370Z,100355.66
2023-07-30T13:30:29.919Z,100358.84
2023-07-30T13:32:57.747Z,100354.84
2023-07-30T13:35:25.635Z,100355.25
2023-07-30T13:37:53.690Z,100360.06
2023-07-30T13:40:21.613Z,100357.28
2023-07-30T13:42:50.694Z,100372.34
2023-07-30T13:45:19.654Z,100370.13
2023-07-30T13:47:47.535Z,100374.03
2023-07-30T13:50:15.437Z,100362.00
2023-07-30T13:52:43.629Z,100364.94
2023-07-30T13:55:11.394Z,100373.53
2023-07-30T13:57:39.171Z,100370.72
2023-07-30T14:00:10.403Z,100360.38
2023-07-30T14:02:38.296Z,100380.16
2023-07-30T14:05:06.675Z,100366.91
2023-07-30T14:07:35.956Z,100366.13
2023-07-30T14:10:03.800Z,100363.72
2023-07-30T14:12:31.956Z,100364.00
2023-07-30T14:14:59.837Z,100373.91
2023-07-30T14:17:28.987Z,100369.63
2023-07-30T14:19:57.514Z,100369.13
2023-07-30T14:22:25.226Z,100375.13
2023-07-30T14:24:53.129Z,100383.56
2023-07-30T14:27:21.918Z,100379.25
2023-07-30T14:29:49.825Z,100374.44
2023-07-30T14:32:18.239Z,100379.06
2023-07-30T14:34:47.412Z,100370.13
2023-07-30T14:37:15.246Z,100370.53
2023-07-30T14:39:43.093Z,100382.97
2023-07-30T14:42:11.161Z,100381.94
2023-07-30T14:44:39.470Z,100370.63
2023-07-30T14:47:09.496Z,100391.28
2023-07-30T14:49:39.002Z,100387.56
2023-07-30T14:52:08.415Z,100381.34
2023-07-30T14:54:35.979Z,100387.56
2023-07-30T14:57:04.014Z,100391.94
2023-07-30T14:59:31.741Z,100379.09
2023-07-30T15:01:59.530Z,100384.09
2023-07-30T15:04:27.548Z,100389.28
2023-07-30T15:06:55.278Z,100405.41
2023-07-30T15:09:24.444Z,100399.25
2023-07-30T15:11:52.425Z,100387.25
2023-07-30T15:14:20.265Z,100388.44
2023-07-30T15:16:48.052Z,100386.59
2023-07-30T15:19:15.853Z,100395.59
2023-07-30T15:21:43.609Z,100400.78
2023-07-30T15:24:11.353Z,100401.38
2023-07-30T15:26:40.942Z,100401.16
2023-07-30T15:29:08.992Z,100403.31
2023-07-30T15:31:36.920Z,100405.28
2023-07-30T15:34:04.907Z,100410.50
2023-07-30T15:36:32.684Z,100412.97
2023-07-30T15:39:00.512Z,100418.16
2023-07-30T15:41:29.304Z,100420.94
2023-07-30T15:43:58.410Z,100429.41
2023-07-30T15:46:26.182Z,100425.19
2023-07-30T15:48:54.205Z,100426.31
2023-07-30T15:51:21.969Z,100429.09
2023-07-30T15:53:52.333Z,100424.28
2023-07-30T15:56:20.608Z,100425.16
2023-07-30T15:58:48.368Z,100423.59
2023-07-30T16:01:17.556Z,100432.84
2023-07-30T16:03:45.600Z,100432.06
2023-07-30T16:06:13.404Z,100427.03
2023-07-30T16:08:41.673Z,100433.88
2023-07-30T16:11:12.075Z,100436.91
2023-07-30T16:13:39.834Z,100441.59
2023-07-30T16:16:09.876Z,100440.84
2023-07-30T16:18:39.620Z,100438.50
2023-07-30T16:21:07.848Z,100434.53
2023-07-30T16:23:35.745Z,100444.31
2023-07-30T16:26:04.156Z,100447.38
2023-07-30T16:28:32.017Z,100449.31
2023-07-30T16:31:00.213Z,100435.34
2023-07-30T16:33:28.294Z,100442.94
2023-07-30T16:35:57.429Z,100441.91
2023-07-30T16:38:25.252Z,100436.03
2023-07-30T16:40:54.282Z,100431.19
2023-07-30T16:43:22.367Z,100428.00
2023-07-30T16:45:50.164Z,100422.06
2023-07-30T16:48:18.549Z,100426.13
2023-07-30T16:50:47.352Z,100428.59
2023-07-30T16:53:16.466Z,100424.00
2023-07-30T16:55:44.447Z,100418.59
2023-07-30T16:58:12.383Z,100419.41
2023-07-30T17:00:40.215Z,100412.97
2023-07-30T17:03:08.207Z,100408.91
2023-07-30T17:05:36.227Z,100405.97
2023-07-30T17:08:04.136Z,100407.56
2023-07-30T17:10:37.669Z,100412.75
2023-07-30T17:13:05.459Z,100413.59
2023-07-30T17:15:33.232Z,100409.31
2023-07-30T17:18:01.072Z,100408.25
2023-07-30T17:20:28.932Z,100415.28
2023-07-30T17:22:56.698Z,100402.91
2023-07-30T17:25:24.472Z,100401.84
2023-07-30T17:27:53.568Z,100411.81
2023-07-30T17:30:21.531Z,100405.66
2023-07-30T17:32:49.729Z,100409.44
2023-07-30T17:35:17.558Z,100400.56
2023-07-30T17:37:45.304Z,100408.13
2023-07-30T17:40:13.509Z,100394.41
2023-07-30T17:42:41.259Z,100395.78
2023-07-30T17:45:11.411Z,100398.78
2023-07-30T17:47:39.462Z,100406.59
2023-07-30T17:50:07.795Z,100398.25
2023-07-30T17:52:35.536Z,100405.81
2023-07-30T17:55:03.667Z,100396.09
2023-07-30T17:57:31.476Z,100406.06
2023-07-30T17:59:59.314Z,100399.66
2023-07-30T18:02:28.962Z,100398.56
2023-07-30T18:04:56.831Z,100399.94
2023-07-30T18:07:24.618Z,100403.19
2023-07-30T18:09:53.400Z,100400.50
2023-07-30T18:12:21.672Z,100393.78
2023-07-30T18:14:49.394Z,100393.81
2023-07-30T18:17:17.382Z,100401.06
2023-07-30T18:19:46.611Z,100398.91
2023-07-30T18:22:14.415Z,100398.41
2023-07-30T18:24:42.392Z,100401.09
2023-07-30T18:27:10.136Z,100403.25
2023-07-30T18:29:37.848Z,100396.25
2023-07-30T18:32:09.458Z,100396.25
2023-07-30T18:34:38.126Z,100389.81
2023-07-30T18:37:08.191Z,100395.97
2023-07-30T18:39:36.158Z,100397.59
2023-07-30T18:42:04.210Z,100402.19
2023-07-30T18:44:31.993Z,100401.63
2023-07-30T18:47:01.828Z,100394.38
2023-07-30T18:49:30.085Z,100393.06
2023-07-30T18:51:57.810Z,100392.00
2023-07-30T18:54:27.181Z,100403.56
2023-07-30T18:56:55.237Z,100392.00
2023-07-30T18:59:23.022Z,100392.00
2023-07-30T19:01:50.761Z,100392.53
2023-07-30T19:04:18.479Z,100400.06
2023-07-30T19:06:46.202Z,100392.28
2023-07-30T19:09:13.939Z,100387.72
2023-07-30T19:11:43.067Z,100381.78
2023-07-30T19:14:10.898Z,100385.81
2023-07-30T19:16:38.975Z,100394.16
2023-07-30T19:19:06.968Z,100387.16
2023-07-30T19:21:34.687Z,100393.38
2023-07-30T19:24:02.543Z,100387.16
2023-07-30T19:26:30.293Z,100392.53
2023-07-30T19:28:59.418Z,100393.63
2023-07-30T19:31:27.488Z,100392.00
2023-07-30T19:33:55.223Z,100390.41
2023-07-30T19:36:22.925Z,100379.94
2023-07-30T19:38:50.691Z,100384.75
2023-07-30T19:41:27.438Z,100386.38
2023-07-30T19:43:56.109Z,100374.28
2023-07-30T19:46:25.299Z,100379.94
2023-07-30T19:48:53.192Z,100388.25
2023-07-30T19:51:21.676Z,100393.91
2023-07-30T19:53:49.429Z,100383.16
2023-07-30T19:56:17.163Z,100386.94
2023-07-30T19:58:45.134Z,100389.63
2023-07-30T20:01:13.008Z,100387.75
2023-07-30T20:03:42.153Z,100386.94
2023-07-30T20:06:14.173Z,100388.81
2023-07-30T20:08:42.411Z,100391.50
2023-07-30T20:11:11.913Z,100391.75
2023-07-30T20:13:39.538Z,100389.63
2023-07-30T20:16:13.443Z,100400.91
2023-07-30T20:18:42.846Z,100399.03
2023-07-30T20:21:11.174Z,100404.16
2023-07-30T20:23:39.654Z,100385.88
2023-07-30T20:26:13.797Z,100392.56
2023-07-30T20:28:43.381Z,100393.13
2023-07-30T20:31:11.259Z,100390.72
2023-07-30T20:33:40.405Z,100389.88
2023-07-30T20:36:09.951Z,100397.94
2023-07-30T20:38:37.517Z,100394.44
2023-07-30T20:41:05.382Z,100387.19
2023-07-30T20:43:33.365Z,100397.94
2023-07-30T20:46:01.198Z,100396.34
2023-07-30T20:48:28.996Z,100400.09
2023-07-30T20:50:58.581Z,100395.81
2023-07-30T20:53:27.511Z,100385.06
2023-07-30T20:55:55.374Z,100388.81
2023-07-30T20:58:23.968Z,100386.66
2023-07-30T21:00:51.827Z,100392.03
2023-07-30T21:03:20.015Z,100386.94
2023-07-30T21:05:47.858Z,100383.72
2023-07-30T21:08:15.639Z,100389.38
2023-07-30T21:10:44.813Z,100390.16
2023-07-30T21:13:12.567Z,100383.47
2023-07-30T21:15:40.352Z,100389.91
2023-07-30T21:18:08.319Z,100382.91
2023-07-30T21:20:36.082Z,100382.38
2023-07-30T21:23:03.953Z,100381.84
2023-07-30T21:25:33.704Z,100392.06
2023-07-30T21:28:02.942Z,100385.59
2023-07-30T21:30:31.099Z,100376.47
2023-07-30T21:32:59.500Z,100381.84
2023-07-30T21:35:27.309Z,100378.34
2023-07-30T21:37:55.048Z,100379.72
2023-07-30T21:40:22.970Z,100378.63
2023-07-30T21:42:50.906Z,100381.31
2023-07-30T21:45:20.020Z,100372.72
2023-07-30T21:47:47.993Z,100374.34
2023-07-30T21:50:15.958Z,100367.34
2023-07-30T21:52:44.031Z,100366.28
2023-07-30T21:55:12.063Z,100367.88
2023-07-30T21:57:39.805Z,100372.19
2023-07-30T22:00:09.868Z,100380.78
2023-07-30T22:02:39.297Z,100371.66
2023-07-30T22:05:07.567Z,100369.75
2023-07-30T22:07:35.312Z,100370.56
2023-07-30T22:10:03.374Z,100376.75
2023-07-30T22:12:31.141Z,100363.59
2023-07-30T22:14:58.934Z,100362.78
2023-07-30T22:17:27.101Z,100368.41
2023-07-30T22:19:56.365Z,100367.88
2023-07-30T22:22:24.187Z,100369.50
2023-07-30T22:24:52.255Z,100367.09
2023-07-30T22:27:20.058Z,100371.91
2023-07-30T22:29:48.008Z,100353.38
2023-07-30T22:32:16.149Z,100357.66
2023-07-30T22:34:43.924Z,100350.97
2023-07-30T22:37:13.054Z,100356.63
2023-07-30T22:39:41.155Z,100354.75
2023-07-30T22:42:09.207Z,100347.47
2023-07-30T22:44:36.963Z,100343.72
2023-07-30T22:47:04.850Z,100349.63
2023-07-30T22:49:33.043Z,100345.88
2023-07-30T22:52:01.134Z,100346.41
2023-07-30T22:54:30.229Z,100346.94
2023-07-30T22:56:58.351Z,100349.09
2023-07-30T22:59:26.104Z,100341.84
2023-07-30T23:01:54.236Z,100332.41
2023-07-30T23:04:22.316Z,100341.53
2023-07-30T23:06:50.052Z,100330.78
2023-07-30T23:09:18.139Z,100322.19
2023-07-30T23:11:47.366Z,100329.19
2023-07-30T23:14:16.291Z,100325.69
2023-07-30T23:16:44.728Z,100316.56
2023-07-30T23:19:12.904Z,100320.31
2023-07-30T23:21:40.716Z,100319.00
2023-07-30T23:24:09.140Z,100317.34
2023-07-30T23:26:37.720Z,100319.25
2023-07-30T23:29:07.128Z,100326.50
2023-07-30T23:31:34.944Z,100322.22
2023-07-30T23:34:03.270Z,100316.56
2023-07-30T23:36:31.011Z,100322.72
2023-07-30T23:38:59.229Z,100334.28
2023-07-30T23:41:27.043Z,100325.97
2023-07-30T23:43:54.805Z,100321.41
2023-07-30T23:46:24.273Z,100325.41
2023-07-30T23:48:52.041Z,100327.03
2023-07-30T23:51:20.412Z,100328.66
2023-07-30T23:53:48.146Z,100320.84
2023-07-30T23:56:15.887Z,100322.47
2023-07-30T23:58:43.844Z,100312.53
